createdAt,value
2022-08-26T00:02:30.522Z,49.78
2022-08-26T00:05:00.566Z,49.92
2022-08-26T00:07:30.441Z,49.77
2022-08-26T00:10:00.755Z,49.82
2022-08-26T00:12:36.045Z,49.87
2022-08-26T00:15:03.822Z,49.94
2022-08-26T00:17:34.357Z,49.92
2022-08-26T00:20:06.477Z,49.90
2022-08-26T00:22:37.083Z,49.98
2022-08-26T00:25:07.764Z,49.98
2022-08-26T00:27:39.431Z,49.95
2022-08-26T00:30:13.006Z,50.01
2022-08-26T00:32:44.336Z,50.11
2022-08-26T00:35:15.132Z,50.26
2022-08-26T00:37:51.038Z,50.31
2022-08-26T00:40:26.027Z,50.42
2022-08-26T00:42:56.505Z,50.57
2022-08-26T00:45:27.634Z,50.56
2022-08-26T00:48:01.764Z,50.90
2022-08-26T00:50:37.841Z,50.95
2022-08-26T00:53:11.221Z,51.07
2022-08-26T00:55:40.943Z,51.41
2022-08-26T00:58:10.182Z,51.42
2022-08-26T01:00:40.700Z,51.45
2022-08-26T01:03:12.608Z,51.64
2022-08-26T01:05:42.801Z,51.75
2022-08-26T01:08:11.929Z,51.81
2022-08-26T01:10:42.934Z,52.08
2022-08-26T01:13:14.196Z,52.02
2022-08-26T01:15:48.223Z,51.94
2022-08-26T01:18:18.376Z,51.87
2022-08-26T01:21:13.169Z,51.89
2022-08-26T01:23:48.458Z,51.53
2022-08-26T01:26:32.760Z,51.38
2022-08-26T01:29:04.234Z,51.44
2022-08-26T01:31:42.736Z,51.34
2022-08-26T01:34:22.858Z,51.47
2022-08-26T01:36:55.654Z,51.24
2022-08-26T01:39:26.394Z,51.13
2022-08-26T01:41:57.671Z,51.49
2022-08-26T01:44:31.994Z,51.10
2022-08-26T01:47:02.677Z,50.97
2022-08-26T01:49:35.598Z,51.04
2022-08-26T01:52:06.127Z,51.15
2022-08-26T01:54:36.414Z,51.04
2022-08-26T01:57:07.728Z,50.57
2022-08-26T01:59:36.954Z,50.58
2022-08-26T02:02:06.941Z,50.71
2022-08-26T02:04:44.562Z,50.66
2022-08-26T02:07:15.202Z,50.79
2022-08-26T02:09:48.341Z,50.85
2022-08-26T02:12:19.522Z,50.94
2022-08-26T02:14:53.490Z,51.15
2022-08-26T02:17:30.567Z,51.40
2022-08-26T02:20:00.309Z,51.66
2022-08-26T02:22:30.767Z,51.95
2022-08-26T02:25:03.408Z,52.23
2022-08-26T02:27:35.306Z,52.67
2022-08-26T02:32:43.625Z,52.88
2022-08-26T02:35:14.157Z,53.06
2022-08-26T02:37:46.479Z,54.00
2022-08-26T02:40:21.696Z,54.33
2022-08-26T02:42:53.168Z,53.62
2022-08-26T02:45:24.244Z,53.38
2022-08-26T02:47:56.317Z,54.67
2022-08-26T02:50:26.592Z,53.65
2022-08-26T02:52:55.562Z,53.65
2022-08-26T02:55:26.261Z,53.49
2022-08-26T02:57:56.565Z,53.49
2022-08-26T03:00:27.206Z,53.69
2022-08-26T03:02:57.947Z,54.14
2022-08-26T03:05:28.237Z,53.75
2022-08-26T03:07:58.176Z,54.04
2022-08-26T03:10:31.997Z,53.96
2022-08-26T03:13:05.381Z,53.66
2022-08-26T03:15:36.991Z,53.58
2022-08-26T03:18:07.736Z,53.37
2022-08-26T03:20:37.443Z,53.33
2022-08-26T03:23:07.578Z,53.61
2022-08-26T03:25:39.892Z,53.61
2022-08-26T03:28:09.697Z,53.79
2022-08-26T03:30:45.515Z,53.35
2022-08-26T03:33:11.522Z,53.42
2022-08-26T03:35:41.384Z,53.52
2022-08-26T03:38:11.650Z,53.49
2022-08-26T03:40:42.931Z,53.32
2022-08-26T03:43:13.379Z,53.27
2022-08-26T03:45:42.975Z,53.47
2022-08-26T03:48:14.387Z,53.73
2022-08-26T03:50:43.530Z,53.95
2022-08-26T03:53:14.024Z,53.73
2022-08-26T03:55:45.699Z,53.74
2022-08-26T04:27:23.660Z,51.21
2022-08-26T04:29:56.462Z,50.93
2022-08-26T04:32:27.463Z,49.87
2022-08-26T04:34:58.262Z,50.26
2022-08-26T04:37:31.016Z,49.71
2022-08-26T04:40:02.879Z,49.59
2022-08-26T04:42:34.689Z,49.52
2022-08-26T04:45:09.869Z,49.01
2022-08-26T04:47:38.576Z,48.05
2022-08-26T04:50:11.036Z,48.02
2022-08-26T04:52:42.115Z,48.07
2022-08-26T04:55:12.527Z,47.79
2022-08-26T04:57:43.402Z,47.77
2022-08-26T05:00:14.434Z,47.36
2022-08-26T05:02:46.143Z,47.25
2022-08-26T05:05:15.521Z,47.11
2022-08-26T05:07:47.874Z,46.83
2022-08-26T05:10:20.645Z,46.84
2022-08-26T05:12:50.237Z,46.67
2022-08-26T05:15:20.324Z,46.72
2022-08-26T05:17:51.321Z,46.96
2022-08-26T05:20:23.914Z,46.07
2022-08-26T05:22:52.279Z,46.06
2022-08-26T05:25:24.598Z,46.13
2022-08-26T05:27:56.625Z,46.05
2022-08-26T05:30:26.503Z,45.97
2022-08-26T05:32:56.644Z,45.91
2022-08-26T05:35:30.768Z,45.68
2022-08-26T05:38:01.641Z,45.38
2022-08-26T05:40:38.651Z,44.71
2022-08-26T05:43:11.455Z,44.85
2022-08-26T05:45:45.815Z,44.99
2022-08-26T05:48:24.208Z,45.30
2022-08-26T05:50:52.118Z,44.46
2022-08-26T05:53:23.988Z,44.43
2022-08-26T05:55:55.417Z,44.23
2022-08-26T05:58:26.742Z,43.31
2022-08-26T06:01:10.457Z,42.93
2022-08-26T06:03:44.524Z,42.96
2022-08-26T06:06:28.084Z,43.21
2022-08-26T06:08:58.746Z,43.02
2022-08-26T06:11:32.006Z,43.06
2022-08-26T06:14:04.365Z,43.14
2022-08-26T06:16:40.781Z,42.81
2022-08-26T06:19:11.596Z,42.92
2022-08-26T06:21:42.523Z,42.47
2022-08-26T06:24:28.428Z,42.41
2022-08-26T06:27:08.130Z,42.14
2022-08-26T06:29:37.650Z,42.07
2022-08-26T06:32:07.270Z,41.48
2022-08-26T06:34:38.749Z,41.71
2022-08-26T06:37:09.539Z,41.83
2022-08-26T06:39:41.116Z,41.61
2022-08-26T06:42:11.772Z,41.55
2022-08-26T06:44:41.664Z,41.98
2022-08-26T06:47:13.928Z,42.05
2022-08-26T06:49:45.830Z,41.36
2022-08-26T06:52:24.432Z,40.92
2022-08-26T06:54:57.531Z,41.04
2022-08-26T06:57:27.178Z,40.99
2022-08-26T06:59:56.611Z,41.20
2022-08-26T07:02:28.661Z,40.94
2022-08-26T07:04:58.499Z,40.20
2022-08-26T07:07:30.054Z,38.85
2022-08-26T07:10:00.233Z,38.66
2022-08-26T07:12:32.120Z,37.32
2022-08-26T07:15:02.594Z,36.45
2022-08-26T07:17:32.982Z,35.30
2022-08-26T07:20:07.105Z,34.77
2022-08-26T07:22:37.873Z,33.84
2022-08-26T07:25:09.003Z,33.21
2022-08-26T07:27:38.775Z,32.80
2022-08-26T07:30:10.264Z,32.24
2022-08-26T07:32:41.677Z,31.18
2022-08-26T07:35:11.737Z,31.19
2022-08-26T07:37:41.258Z,30.91
2022-08-26T07:40:11.914Z,30.33
2022-08-26T07:42:42.627Z,29.54
2022-08-26T07:45:12.641Z,29.86
2022-08-26T07:47:43.850Z,29.44
2022-08-26T07:50:13.871Z,28.82
2022-08-26T07:52:45.454Z,29.04
2022-08-26T07:55:17.313Z,28.39
2022-08-26T07:57:47.602Z,28.06
2022-08-26T08:00:20.966Z,28.43
2022-08-26T08:02:50.585Z,28.33
2022-08-26T08:05:22.257Z,26.80
2022-08-26T08:08:26.242Z,26.42
2022-08-26T08:10:27.322Z,26.42
2022-08-26T08:12:59.168Z,26.58
2022-08-26T08:15:33.747Z,26.58
2022-08-26T08:18:15.865Z,26.25
2022-08-26T08:20:47.568Z,25.53
2022-08-26T08:23:14.028Z,25.46
2022-08-26T08:25:43.848Z,25.30
2022-08-26T08:28:13.187Z,25.50
2022-08-26T08:30:43.398Z,25.10
2022-08-26T08:33:13.728Z,24.79
2022-08-26T08:35:43.632Z,24.35
2022-08-26T08:38:13.055Z,24.07
2022-08-26T08:40:43.790Z,23.92
2022-08-26T08:43:18.988Z,23.80
2022-08-26T08:45:54.858Z,23.56
2022-08-26T08:48:32.485Z,23.23
2022-08-26T08:51:43.401Z,22.85
2022-08-26T08:54:13.834Z,23.03
2022-08-26T08:56:53.821Z,23.08
2022-08-26T08:59:28.518Z,23.38
2022-08-26T09:02:19.130Z,23.39
2022-08-26T09:05:15.537Z,23.42
2022-08-26T09:08:06.643Z,23.75
2022-08-26T09:10:44.046Z,23.58
2022-08-26T09:13:16.808Z,23.96
2022-08-26T09:15:54.596Z,23.85
2022-08-26T09:18:38.120Z,23.82
2022-08-26T09:21:12.375Z,23.88
2022-08-26T09:23:42.958Z,24.16
2022-08-26T09:26:31.264Z,24.13
2022-08-26T09:29:03.367Z,23.19
2022-08-26T09:31:35.767Z,22.24
2022-08-26T09:34:18.500Z,22.50
2022-08-26T09:36:57.352Z,22.31
2022-08-26T09:39:37.839Z,22.47
2022-08-26T09:42:25.985Z,22.02
2022-08-26T09:45:04.231Z,22.26
2022-08-26T09:47:49.912Z,22.27
2022-08-26T09:50:35.848Z,22.45
2022-08-26T09:53:28.484Z,22.31
2022-08-26T09:56:15.676Z,22.14
2022-08-26T09:58:47.020Z,22.14
2022-08-26T10:01:32.981Z,22.75
2022-08-26T10:04:08.702Z,23.03
2022-08-26T10:06:43.984Z,22.37
2022-08-26T10:09:17.557Z,22.75
2022-08-26T10:11:53.389Z,22.71
2022-08-26T10:14:50.495Z,22.88
2022-08-26T10:17:40.290Z,22.87
2022-08-26T10:20:23.745Z,22.40
2022-08-26T10:23:09.443Z,21.82
2022-08-26T10:25:46.919Z,22.07
2022-08-26T10:28:34.168Z,21.94
2022-08-26T10:31:12.516Z,22.04
2022-08-26T10:33:42.304Z,22.13
2022-08-26T10:36:20.224Z,21.59
2022-08-26T10:38:48.984Z,21.05
2022-08-26T10:41:21.111Z,19.30
2022-08-26T10:43:59.790Z,19.46
2022-08-26T10:46:34.065Z,19.59
2022-08-26T10:49:15.394Z,19.62
2022-08-26T10:52:16.588Z,19.16
2022-08-26T10:54:57.774Z,19.42
2022-08-26T10:58:05.955Z,18.76
2022-08-26T11:00:58.464Z,22.14
2022-08-26T11:03:34.592Z,19.59
2022-08-26T11:06:28.955Z,19.11
2022-08-26T11:09:03.965Z,18.93
2022-08-26T11:11:46.855Z,18.82
2022-08-26T11:14:29.086Z,19.62
2022-08-26T11:16:57.258Z,20.08
2022-08-26T11:20:02.630Z,20.24
2022-08-26T11:22:47.455Z,20.75
2022-08-26T11:25:14.425Z,21.08
2022-08-26T11:27:57.109Z,21.43
2022-08-26T11:30:40.054Z,21.66
2022-08-26T11:33:12.497Z,21.60
2022-08-26T11:35:46.027Z,21.43
2022-08-26T11:38:29.483Z,21.45
2022-08-26T11:41:13.952Z,21.75
2022-08-26T11:43:46.459Z,22.05
2022-08-26T11:46:18.838Z,22.13
2022-08-26T11:48:49.314Z,22.28
2022-08-26T11:51:27.913Z,22.39
2022-08-26T11:54:16.516Z,22.31
2022-08-26T11:56:49.131Z,21.78
2022-08-26T11:59:30.864Z,21.34
2022-08-26T12:02:01.475Z,19.92
2022-08-26T12:04:34.034Z,19.67
2022-08-26T12:07:04.682Z,19.53
2022-08-26T12:09:38.070Z,19.06
2022-08-26T12:12:21.168Z,19.11
2022-08-26T12:15:12.271Z,19.30
2022-08-26T12:17:42.572Z,19.73
2022-08-26T12:23:43.684Z,18.91
2022-08-26T12:26:36.441Z,19.11
2022-08-26T12:29:28.120Z,19.56
2022-08-26T12:32:17.356Z,19.79
2022-08-26T12:34:48.715Z,20.22
2022-08-26T12:37:21.030Z,20.50
2022-08-26T12:39:51.966Z,20.59
2022-08-26T12:42:26.122Z,20.82
2022-08-26T12:45:06.270Z,20.38
2022-08-26T12:47:44.350Z,20.18
2022-08-26T12:50:26.480Z,20.19
2022-08-26T12:53:06.783Z,20.30
2022-08-26T12:55:47.282Z,20.34
2022-08-26T12:58:29.629Z,20.23
2022-08-26T13:01:11.680Z,20.43
2022-08-26T13:03:44.694Z,20.65
2022-08-26T13:06:27.613Z,20.77
2022-08-26T13:09:11.531Z,20.89
2022-08-26T13:11:47.462Z,21.05
2022-08-26T13:14:23.860Z,21.05
2022-08-26T13:16:50.068Z,21.32
2022-08-26T13:19:22.616Z,21.08
2022-08-26T13:21:54.176Z,20.69
2022-08-26T13:24:29.372Z,20.58
2022-08-26T13:26:59.989Z,20.75
2022-08-26T13:29:30.042Z,20.89
2022-08-26T13:31:59.687Z,21.13
2022-08-26T13:34:30.291Z,21.43
2022-08-26T13:36:59.562Z,21.50
2022-08-26T13:39:28.680Z,21.64
2022-08-26T13:41:58.759Z,21.69
2022-08-26T13:44:28.134Z,21.52
2022-08-26T13:46:57.350Z,21.57
2022-08-26T13:49:27.953Z,21.82
2022-08-26T13:51:57.262Z,21.60
2022-08-26T13:54:26.582Z,21.43
2022-08-26T13:56:55.772Z,21.53
2022-08-26T13:59:24.411Z,21.42
2022-08-26T14:01:53.371Z,21.67
2022-08-26T14:04:26.926Z,21.75
2022-08-26T14:06:53.010Z,21.62
2022-08-26T14:09:22.791Z,21.54
2022-08-26T14:11:54.285Z,21.65
2022-08-26T14:14:23.739Z,21.57
2022-08-26T14:16:59.410Z,21.41
2022-08-26T14:19:25.085Z,21.56
2022-08-26T14:21:53.941Z,21.69
2022-08-26T14:24:23.371Z,21.78
2022-08-26T14:26:51.941Z,21.95
2022-08-26T14:29:21.046Z,21.87
2022-08-26T14:31:49.984Z,21.71
2022-08-26T14:34:19.243Z,21.31
2022-08-26T14:36:48.526Z,21.66
2022-08-26T14:39:18.231Z,21.63
2022-08-26T14:41:53.835Z,21.87
2022-08-26T14:44:21.266Z,21.76
2022-08-26T14:46:54.114Z,21.93
2022-08-26T14:49:24.138Z,22.09
2022-08-26T14:51:56.527Z,22.25
2022-08-26T14:54:26.410Z,22.30
2022-08-26T14:57:04.626Z,22.17
2022-08-26T14:59:40.516Z,22.23
2022-08-26T15:02:13.749Z,22.24
2022-08-26T15:04:43.861Z,22.10
2022-08-26T15:07:13.622Z,22.43
2022-08-26T15:09:43.876Z,22.43
2022-08-26T15:12:13.025Z,22.28
2022-08-26T15:14:43.885Z,22.32
2022-08-26T15:17:13.282Z,22.05
2022-08-26T15:19:43.321Z,22.07
2022-08-26T15:22:12.437Z,22.07
2022-08-26T15:24:41.441Z,21.55
2022-08-26T15:27:11.251Z,21.47
2022-08-26T15:29:41.406Z,21.35
2022-08-26T15:32:11.222Z,21.25
2022-08-26T15:34:41.891Z,21.54
2022-08-26T15:37:11.915Z,21.67
2022-08-26T15:39:41.140Z,21.93
2022-08-26T15:42:11.333Z,21.93
2022-08-26T15:44:45.351Z,22.14
2022-08-26T15:47:14.989Z,22.10
2022-08-26T15:49:44.491Z,22.26
2022-08-26T15:52:14.460Z,22.18
2022-08-26T15:54:45.221Z,22.26
2022-08-26T15:57:18.698Z,22.25
2022-08-26T15:59:47.056Z,22.58
2022-08-26T16:02:16.262Z,22.57
2022-08-26T16:04:46.722Z,22.85
2022-08-26T16:07:17.068Z,23.08
2022-08-26T16:09:48.642Z,23.35
2022-08-26T16:12:20.955Z,23.56
2022-08-26T16:14:51.617Z,23.62
2022-08-26T16:17:25.008Z,23.78
2022-08-26T16:19:56.297Z,23.79
2022-08-26T16:22:26.909Z,23.82
2022-08-26T16:24:59.390Z,24.14
2022-08-26T16:27:29.543Z,24.27
2022-08-26T16:29:59.687Z,24.45
2022-08-26T16:32:31.324Z,24.18
2022-08-26T16:35:02.071Z,24.53
2022-08-26T16:37:33.728Z,25.14
2022-08-26T16:40:05.781Z,25.25
2022-08-26T16:42:37.175Z,25.16
2022-08-26T16:45:08.650Z,25.10
2022-08-26T16:47:38.633Z,25.44
2022-08-26T16:50:10.007Z,25.50
2022-08-26T16:52:39.935Z,25.55
2022-08-26T16:55:12.232Z,25.60
2022-08-26T16:57:44.064Z,25.87
2022-08-26T17:00:25.068Z,26.19
2022-08-26T17:02:57.434Z,26.01
2022-08-26T17:05:28.143Z,25.89
2022-08-26T17:07:59.169Z,25.90
2022-08-26T17:10:32.129Z,26.29
2022-08-26T17:13:03.327Z,26.44
2022-08-26T17:15:32.672Z,26.57
2022-08-26T17:18:04.267Z,26.31
2022-08-26T17:20:34.743Z,26.39
2022-08-26T17:23:05.080Z,26.59
2022-08-26T17:25:35.532Z,26.43
2022-08-26T17:28:07.520Z,26.47
2022-08-26T17:30:38.660Z,26.44
2022-08-26T17:33:10.840Z,26.57
2022-08-26T17:35:41.356Z,26.96
2022-08-26T17:38:10.915Z,26.83
2022-08-26T17:40:40.839Z,26.83
2022-08-26T17:43:12.494Z,27.15
2022-08-26T17:45:43.257Z,27.35
2022-08-26T17:48:14.524Z,27.24
2022-08-26T17:50:45.505Z,27.44
2022-08-26T17:53:19.203Z,27.50
2022-08-26T17:55:50.079Z,27.57
2022-08-26T17:58:23.233Z,27.65
2022-08-26T18:00:54.928Z,27.77
2022-08-26T18:03:24.888Z,28.06
2022-08-26T18:06:11.239Z,28.17
2022-08-26T18:08:41.743Z,28.32
2022-08-26T18:11:17.365Z,28.38
2022-08-26T18:13:48.741Z,28.49
2022-08-26T18:16:19.346Z,28.77
2022-08-26T18:18:52.081Z,29.07
2022-08-26T18:21:24.270Z,29.16
2022-08-26T18:23:56.036Z,29.36
2022-08-26T18:26:33.640Z,29.26
2022-08-26T18:29:04.299Z,29.68
2022-08-26T18:31:37.435Z,29.54
2022-08-26T18:34:07.500Z,29.71
2022-08-26T18:36:37.297Z,29.67
2022-08-26T18:39:08.139Z,29.81
2022-08-26T18:41:47.231Z,29.93
2022-08-26T18:44:18.540Z,29.88
2022-08-26T18:46:50.265Z,29.90
2022-08-26T18:49:20.846Z,29.91
2022-08-26T18:51:52.495Z,30.06
2022-08-26T18:54:22.300Z,30.12
2022-08-26T18:56:52.322Z,30.22
2022-08-26T18:59:26.755Z,30.45
2022-08-26T19:01:54.566Z,30.63
2022-08-26T19:04:24.936Z,31.28
2022-08-26T19:06:54.704Z,31.57
2022-08-26T19:09:26.453Z,31.83
2022-08-26T19:11:58.304Z,31.97
2022-08-26T19:14:28.542Z,32.16
2022-08-26T19:16:58.273Z,32.34
2022-08-26T19:19:28.492Z,32.52
2022-08-26T19:21:59.374Z,32.73
2022-08-26T19:24:28.689Z,32.69
2022-08-26T19:27:00.910Z,32.78
2022-08-26T19:29:35.164Z,32.81
2022-08-26T19:32:05.319Z,32.70
2022-08-26T19:34:37.266Z,32.78
2022-08-26T19:37:07.920Z,32.83
2022-08-26T19:39:38.985Z,32.77
2022-08-26T19:42:11.020Z,32.72
2022-08-26T19:45:00.946Z,32.63
2022-08-26T19:47:31.746Z,32.40
2022-08-26T19:50:02.837Z,32.50
2022-08-26T19:52:34.335Z,32.42
2022-08-26T19:55:04.284Z,32.52
2022-08-26T19:57:35.453Z,32.49
2022-08-26T20:00:10.168Z,32.42
2022-08-26T20:02:40.728Z,32.59
2022-08-26T20:05:11.708Z,32.61
2022-08-26T20:07:43.400Z,32.52
2022-08-26T20:10:14.132Z,32.60
2022-08-26T20:12:46.038Z,32.55
2022-08-26T20:15:16.475Z,32.54
2022-08-26T20:17:47.334Z,32.56
2022-08-26T20:20:37.659Z,32.54
2022-08-26T20:23:08.567Z,32.61
2022-08-26T20:25:40.930Z,32.64
2022-08-26T20:28:11.998Z,32.54
2022-08-26T20:30:42.839Z,32.39
2022-08-26T20:33:13.816Z,32.27
2022-08-26T20:35:44.142Z,32.39
2022-08-26T20:38:14.636Z,32.71
2022-08-26T20:40:46.595Z,33.12
2022-08-26T20:43:16.417Z,33.51
2022-08-26T20:45:46.914Z,33.93
2022-08-26T20:48:17.481Z,33.89
2022-08-26T20:50:48.306Z,34.03
2022-08-26T20:53:18.019Z,34.51
2022-08-26T20:55:47.319Z,34.73
2022-08-26T20:58:17.637Z,34.81
2022-08-26T21:00:47.732Z,34.86
2022-08-26T21:03:17.603Z,35.01
2022-08-26T21:05:47.514Z,35.25
2022-08-26T21:08:18.923Z,35.23
2022-08-26T21:10:50.662Z,34.51
2022-08-26T21:13:22.166Z,35.04
2022-08-26T21:15:51.016Z,35.65
2022-08-26T21:18:20.900Z,35.55
2022-08-26T21:20:52.306Z,35.64
2022-08-26T21:23:23.770Z,35.69
2022-08-26T21:25:53.978Z,35.60
2022-08-26T21:28:24.152Z,35.67
2022-08-26T21:30:53.767Z,35.65
2022-08-26T21:33:31.610Z,36.00
2022-08-26T21:36:02.218Z,35.73
2022-08-26T21:38:33.500Z,35.82
2022-08-26T21:41:07.369Z,35.40
2022-08-26T21:43:40.015Z,36.13
2022-08-26T21:46:14.081Z,36.14
2022-08-26T21:48:51.230Z,36.27
2022-08-26T21:51:22.938Z,36.16
2022-08-26T21:53:53.348Z,36.01
2022-08-26T21:56:23.888Z,36.21
2022-08-26T21:58:56.895Z,36.52
2022-08-26T22:01:31.617Z,36.54
2022-08-26T22:04:06.264Z,36.57
2022-08-26T22:06:45.789Z,36.72
2022-08-26T22:09:18.320Z,36.50
2022-08-26T22:11:48.766Z,36.53
2022-08-26T22:14:20.847Z,36.48
2022-08-26T22:16:51.100Z,36.07
2022-08-26T22:19:23.602Z,35.96
2022-08-26T22:21:54.999Z,36.00
2022-08-26T22:24:25.277Z,36.08
2022-08-26T22:26:55.524Z,36.12
2022-08-26T22:29:26.893Z,36.23
2022-08-26T22:31:57.002Z,36.50
2022-08-26T22:34:27.264Z,36.68
2022-08-26T22:36:57.453Z,36.67
2022-08-26T22:39:27.380Z,36.66
2022-08-26T22:41:57.141Z,36.58
2022-08-26T22:44:27.108Z,36.66
2022-08-26T22:46:59.304Z,36.93
2022-08-26T22:49:28.721Z,37.02
2022-08-26T22:51:59.129Z,37.05
2022-08-26T22:54:29.845Z,37.30
2022-08-26T22:57:00.538Z,37.25
2022-08-26T22:59:30.977Z,36.63
2022-08-26T23:02:01.547Z,36.65
2022-08-26T23:04:30.674Z,36.64
2022-08-26T23:07:10.932Z,36.61
2022-08-26T23:09:41.475Z,36.59
2022-08-26T23:12:12.130Z,36.13
2022-08-26T23:14:43.992Z,35.94
2022-08-26T23:17:17.162Z,36.51
2022-08-26T23:19:46.859Z,36.65
2022-08-26T23:22:17.329Z,36.75
2022-08-26T23:24:47.782Z,36.89
2022-08-26T23:27:18.491Z,36.44
2022-08-26T23:29:48.409Z,36.22
2022-08-26T23:32:17.571Z,36.84
2022-08-26T23:34:56.999Z,36.49
2022-08-26T23:37:28.992Z,36.53
2022-08-26T23:40:01.721Z,36.46
2022-08-26T23:42:35.837Z,36.32
2022-08-26T23:45:10.185Z,36.02
2022-08-26T23:47:41.145Z,36.30
2022-08-26T23:50:11.578Z,36.35
2022-08-26T23:53:00.550Z,36.10
2022-08-26T23:55:31.399Z,36.38
2022-08-26T23:58:01.105Z,36.18
